sensor_id;sensor_type;location;lat;lon;timestamp;pressure;altitude;pressure_sealevel;temperature
22322;BMP180;11328;53.928;18.522;2022-11-02T00:01:25;100439.00;;;15.00
22322;BMP180;11328;53.928;18.522;2022-11-02T00:03:54;100440.00;;;15.00
22322;BMP180;11328;53.928;18.522;2022-11-02T00:06:21;100440.00;;;15.00
22322;BMP180;11328;53.928;18.522;2022-11-02T00:08:49;100438.00;;;14.90
22322;BMP180;11328;53.928;18.522;2022-11-02T00:11:16;100442.00;;;14.80
22322;BMP180;11328;53.928;18.522;2022-11-02T00:13:43;100443.00;;;14.90
22322;BMP180;11328;53.928;18.522;2022-11-02T00:16:14;100445.00;;;14.90
22322;BMP180;11328;53.928;18.522;2022-11-02T00:18:44;100453.00;;;14.80
22322;BMP180;11328;53.928;18.522;2022-11-02T00:21:16;100454.00;;;14.90
22322;BMP180;11328;53.928;18.522;2022-11-02T00:23:45;100452.00;;;14.90
22322;BMP180;11328;53.928;18.522;2022-11-02T00:26:14;100454.00;;;14.80
22322;BMP180;11328;53.928;18.522;2022-11-02T00:28:41;100458.00;;;14.90
22322;BMP180;11328;53.928;18.522;2022-11-02T00:31:09;100457.00;;;14.90
22322;BMP180;11328;53.928;18.522;2022-11-02T00:33:37;100455.00;;;14.90
22322;BMP180;11328;53.928;18.522;2022-11-02T00:36:07;100461.00;;;14.90
22322;BMP180;11328;53.928;18.522;2022-11-02T00:38:35;100443.00;;;14.90
22322;BMP180;11328;53.928;18.522;2022-11-02T00:41:03;100454.00;;;14.80
22322;BMP180;11328;53.928;18.522;2022-11-02T00:43:31;100453.00;;;14.80
22322;BMP180;11328;53.928;18.522;2022-11-02T00:45:59;100451.00;;;14.80
22322;BMP180;11328;53.928;18.522;2022-11-02T00:48:29;100443.00;;;14.80
22322;BMP180;11328;53.928;18.522;2022-11-02T00:50:58;100455.00;;;14.80
22322;BMP180;11328;53.928;18.522;2022-11-02T00:53:25;100446.00;;;14.70
22322;BMP180;11328;53.928;18.522;2022-11-02T00:55:54;100454.00;;;14.70
22322;BMP180;11328;53.928;18.522;2022-11-02T00:58:21;100452.00;;;14.60
22322;BMP180;11328;53.928;18.522;2022-11-02T01:00:49;100461.00;;;14.60
22322;BMP180;11328;53.928;18.522;2022-11-02T01:03:17;100452.00;;;14.50
22322;BMP180;11328;53.928;18.522;2022-11-02T01:05:44;100449.00;;;14.50
22322;BMP180;11328;53.928;18.522;2022-11-02T01:08:12;100462.00;;;14.50
22322;BMP180;11328;53.928;18.522;2022-11-02T01:10:41;100472.00;;;14.60
22322;BMP180;11328;53.928;18.522;2022-11-02T01:13:14;100458.00;;;14.60
22322;BMP180;11328;53.928;18.522;2022-11-02T01:15:42;100459.00;;;14.60
22322;BMP180;11328;53.928;18.522;2022-11-02T01:18:10;100459.00;;;14.60
22322;BMP180;11328;53.928;18.522;2022-11-02T01:20:39;100464.00;;;14.60
22322;BMP180;11328;53.928;18.522;2022-11-02T01:23:06;100460.00;;;14.50
22322;BMP180;11328;53.928;18.522;2022-11-02T01:25:33;100466.00;;;14.50
22322;BMP180;11328;53.928;18.522;2022-11-02T01:28:03;100467.00;;;14.50
22322;BMP180;11328;53.928;18.522;2022-11-02T01:30:31;100460.00;;;14.40
22322;BMP180;11328;53.928;18.522;2022-11-02T01:33:04;100468.00;;;14.40
22322;BMP180;11328;53.928;18.522;2022-11-02T01:35:31;100466.00;;;14.40
22322;BMP180;11328;53.928;18.522;2022-11-02T01:37:59;100457.00;;;14.40
22322;BMP180;11328;53.928;18.522;2022-11-02T01:40:27;100466.00;;;14.50
22322;BMP180;11328;53.928;18.522;2022-11-02T01:43:30;100461.00;;;14.50
22322;BMP180;11328;53.928;18.522;2022-11-02T01:48:57;100455.00;;;14.30
22322;BMP180;11328;53.928;18.522;2022-11-02T01:51:40;100453.00;;;14.30
22322;BMP180;11328;53.928;18.522;2022-11-02T01:54:15;100450.00;;;14.30
22322;BMP180;11328;53.928;18.522;2022-11-02T01:56:51;100454.00;;;14.30
22322;BMP180;11328;53.928;18.522;2022-11-02T01:59:28;100450.00;;;14.20
22322;BMP180;11328;53.928;18.522;2022-11-02T02:01:58;100452.00;;;14.20
22322;BMP180;11328;53.928;18.522;2022-11-02T02:04:27;100456.00;;;14.10
22322;BMP180;11328;53.928;18.522;2022-11-02T02:06:57;100440.00;;;14.20
22322;BMP180;11328;53.928;18.522;2022-11-02T02:30:04;100448.00;;;14.40
22322;BMP180;11328;53.928;18.522;2022-11-02T02:32:53;100443.00;;;14.20
22322;BMP180;11328;53.928;18.522;2022-11-02T02:35:37;100448.00;;;14.00
22322;BMP180;11328;53.928;18.522;2022-11-02T02:38:29;100443.00;;;13.90
22322;BMP180;11328;53.928;18.522;2022-11-02T02:41:19;100447.00;;;13.80
22322;BMP180;11328;53.928;18.522;2022-11-02T02:43:53;100448.00;;;13.70
22322;BMP180;11328;53.928;18.522;2022-11-02T02:46:28;100453.00;;;13.70
22322;BMP180;11328;53.928;18.522;2022-11-02T02:48:57;100425.00;;;13.70
22322;BMP180;11328;53.928;18.522;2022-11-02T02:51:32;100449.00;;;13.60
22322;BMP180;11328;53.928;18.522;2022-11-02T02:54:08;100452.00;;;13.60
22322;BMP180;11328;53.928;18.522;2022-11-02T02:56:51;100463.00;;;13.60
22322;BMP180;11328;53.928;18.522;2022-11-02T02:59:33;100462.00;;;13.60
22322;BMP180;11328;53.928;18.522;2022-11-02T03:02:07;100464.00;;;13.60
22322;BMP180;11328;53.928;18.522;2022-11-02T03:04:37;100459.00;;;13.60
22322;BMP180;11328;53.928;18.522;2022-11-02T03:07:04;100448.00;;;13.60
22322;BMP180;11328;53.928;18.522;2022-11-02T03:09:44;100468.00;;;13.50
22322;BMP180;11328;53.928;18.522;2022-11-02T03:18:41;100476.00;;;13.30
22322;BMP180;11328;53.928;18.522;2022-11-02T03:21:22;100478.00;;;13.30
22322;BMP180;11328;53.928;18.522;2022-11-02T03:27:18;100488.00;;;13.40
22322;BMP180;11328;53.928;18.522;2022-11-02T03:30:15;100488.00;;;13.50
22322;BMP180;11328;53.928;18.522;2022-11-02T03:38:39;100500.00;;;13.60
22322;BMP180;11328;53.928;18.522;2022-11-02T03:41:08;100506.00;;;13.60
22322;BMP180;11328;53.928;18.522;2022-11-02T03:43:37;100497.00;;;13.60
22322;BMP180;11328;53.928;18.522;2022-11-02T03:46:08;100507.00;;;13.50
22322;BMP180;11328;53.928;18.522;2022-11-02T03:48:44;100513.00;;;13.50
22322;BMP180;11328;53.928;18.522;2022-11-02T03:51:17;100513.00;;;13.50
22322;BMP180;11328;53.928;18.522;2022-11-02T03:56:38;100517.00;;;13.60
22322;BMP180;11328;53.928;18.522;2022-11-02T03:59:06;100513.00;;;13.70
22322;BMP180;11328;53.928;18.522;2022-11-02T04:01:41;100518.00;;;13.60
22322;BMP180;11328;53.928;18.522;2022-11-02T04:04:10;100515.00;;;13.60
22322;BMP180;11328;53.928;18.522;2022-11-02T04:06:38;100514.00;;;13.50
22322;BMP180;11328;53.928;18.522;2022-11-02T04:09:06;100513.00;;;13.50
22322;BMP180;11328;53.928;18.522;2022-11-02T04:11:35;100511.00;;;13.50
22322;BMP180;11328;53.928;18.522;2022-11-02T04:14:21;100505.00;;;13.70
22322;BMP180;11328;53.928;18.522;2022-11-02T04:17:10;100493.00;;;13.60
22322;BMP180;11328;53.928;18.522;2022-11-02T04:19:56;100501.00;;;13.60
22322;BMP180;11328;53.928;18.522;2022-11-02T04:22:24;100508.00;;;13.50
22322;BMP180;11328;53.928;18.522;2022-11-02T04:25:16;100495.00;;;13.50
22322;BMP180;11328;53.928;18.522;2022-11-02T04:27:50;100491.00;;;13.60
22322;BMP180;11328;53.928;18.522;2022-11-02T04:30:20;100468.00;;;13.70
22322;BMP180;11328;53.928;18.522;2022-11-02T04:32:49;100492.00;;;13.60
22322;BMP180;11328;53.928;18.522;2022-11-02T04:35:35;100483.00;;;13.60
22322;BMP180;11328;53.928;18.522;2022-11-02T04:38:03;100484.00;;;13.50
22322;BMP180;11328;53.928;18.522;2022-11-02T04:40:49;100489.00;;;13.40
22322;BMP180;11328;53.928;18.522;2022-11-02T04:43:36;100489.00;;;13.30
22322;BMP180;11328;53.928;18.522;2022-11-02T04:46:03;100490.00;;;13.30
22322;BMP180;11328;53.928;18.522;2022-11-02T04:48:29;100483.00;;;13.20
22322;BMP180;11328;53.928;18.522;2022-11-02T04:50:57;100488.00;;;13.10
22322;BMP180;11328;53.928;18.522;2022-11-02T04:53:24;100484.00;;;13.00
22322;BMP180;11328;53.928;18.522;2022-11-02T04:55:51;100495.00;;;13.00
22322;BMP180;11328;53.928;18.522;2022-11-02T04:58:18;100494.00;;;13.00
22322;BMP180;11328;53.928;18.522;2022-11-02T05:00:45;100496.00;;;12.90
22322;BMP180;11328;53.928;18.522;2022-11-02T05:03:12;100492.00;;;12.90
22322;BMP180;11328;53.928;18.522;2022-11-02T05:05:39;100496.00;;;12.90
22322;BMP180;11328;53.928;18.522;2022-11-02T05:08:06;100503.00;;;12.90
22322;BMP180;11328;53.928;18.522;2022-11-02T05:10:33;100492.00;;;12.70
22322;BMP180;11328;53.928;18.522;2022-11-02T05:13:00;100508.00;;;12.70
22322;BMP180;11328;53.928;18.522;2022-11-02T05:15:28;100499.00;;;12.70
22322;BMP180;11328;53.928;18.522;2022-11-02T05:17:55;100503.00;;;12.70
22322;BMP180;11328;53.928;18.522;2022-11-02T05:20:22;100508.00;;;12.80
22322;BMP180;11328;53.928;18.522;2022-11-02T05:22:49;100522.00;;;12.80
22322;BMP180;11328;53.928;18.522;2022-11-02T05:25:15;100519.00;;;12.80
22322;BMP180;11328;53.928;18.522;2022-11-02T05:27:42;100521.00;;;12.80
22322;BMP180;11328;53.928;18.522;2022-11-02T05:30:10;100520.00;;;12.70
22322;BMP180;11328;53.928;18.522;2022-11-02T05:32:37;100528.00;;;12.70
22322;BMP180;11328;53.928;18.522;2022-11-02T05:35:05;100523.00;;;12.80
22322;BMP180;11328;53.928;18.522;2022-11-02T05:37:32;100529.00;;;12.80
22322;BMP180;11328;53.928;18.522;2022-11-02T05:39:59;100531.00;;;12.80
22322;BMP180;11328;53.928;18.522;2022-11-02T05:42:26;100535.00;;;12.80
22322;BMP180;11328;53.928;18.522;2022-11-02T05:44:53;100533.00;;;12.80
22322;BMP180;11328;53.928;18.522;2022-11-02T05:47:20;100528.00;;;12.80
22322;BMP180;11328;53.928;18.522;2022-11-02T05:49:47;100525.00;;;12.90
22322;BMP180;11328;53.928;18.522;2022-11-02T05:52:13;100532.00;;;12.80
22322;BMP180;11328;53.928;18.522;2022-11-02T05:54:41;100525.00;;;12.70
22322;BMP180;11328;53.928;18.522;2022-11-02T05:57:08;100528.00;;;12.80
22322;BMP180;11328;53.928;18.522;2022-11-02T05:59:35;100523.00;;;12.80
22322;BMP180;11328;53.928;18.522;2022-11-02T06:02:02;100520.00;;;12.80
22322;BMP180;11328;53.928;18.522;2022-11-02T06:04:29;100530.00;;;12.80
22322;BMP180;11328;53.928;18.522;2022-11-02T06:06:56;100524.00;;;12.80
22322;BMP180;11328;53.928;18.522;2022-11-02T06:09:23;100518.00;;;12.70
22322;BMP180;11328;53.928;18.522;2022-11-02T06:11:50;100529.00;;;12.70
22322;BMP180;11328;53.928;18.522;2022-11-02T06:14:17;100518.00;;;12.50
22322;BMP180;11328;53.928;18.522;2022-11-02T06:16:43;100526.00;;;12.50
22322;BMP180;11328;53.928;18.522;2022-11-02T06:19:10;100529.00;;;12.40
22322;BMP180;11328;53.928;18.522;2022-11-02T06:21:37;100533.00;;;12.40
22322;BMP180;11328;53.928;18.522;2022-11-02T06:24:08;100537.00;;;12.50
22322;BMP180;11328;53.928;18.522;2022-11-02T06:26:35;100535.00;;;12.60
22322;BMP180;11328;53.928;18.522;2022-11-02T06:29:02;100523.00;;;12.90
22322;BMP180;11328;53.928;18.522;2022-11-02T06:31:29;100542.00;;;13.00
22322;BMP180;11328;53.928;18.522;2022-11-02T06:33:56;100538.00;;;13.10
22322;BMP180;11328;53.928;18.522;2022-11-02T06:36:23;100540.00;;;13.00
22322;BMP180;11328;53.928;18.522;2022-11-02T06:38:50;100535.00;;;13.00
22322;BMP180;11328;53.928;18.522;2022-11-02T06:41:17;100528.00;;;13.00
22322;BMP180;11328;53.928;18.522;2022-11-02T06:43:44;100524.00;;;12.90
22322;BMP180;11328;53.928;18.522;2022-11-02T06:46:11;100529.00;;;12.90
22322;BMP180;11328;53.928;18.522;2022-11-02T06:48:38;100541.00;;;13.00
22322;BMP180;11328;53.928;18.522;2022-11-02T06:51:06;100539.00;;;13.00
22322;BMP180;11328;53.928;18.522;2022-11-02T06:53:33;100539.00;;;13.10
22322;BMP180;11328;53.928;18.522;2022-11-02T06:56:00;100540.00;;;13.00
22322;BMP180;11328;53.928;18.522;2022-11-02T06:58:27;100532.00;;;13.00
22322;BMP180;11328;53.928;18.522;2022-11-02T07:01:04;100535.00;;;13.10
22322;BMP180;11328;53.928;18.522;2022-11-02T07:03:34;100534.00;;;13.10
22322;BMP180;11328;53.928;18.522;2022-11-02T07:06:02;100539.00;;;12.90
22322;BMP180;11328;53.928;18.522;2022-11-02T07:08:29;100536.00;;;13.10
22322;BMP180;11328;53.928;18.522;2022-11-02T07:10:56;100546.00;;;13.00
22322;BMP180;11328;53.928;18.522;2022-11-02T07:13:24;100547.00;;;13.10
22322;BMP180;11328;53.928;18.522;2022-11-02T07:15:53;100538.00;;;13.20
22322;BMP180;11328;53.928;18.522;2022-11-02T07:18:21;100538.00;;;13.20
22322;BMP180;11328;53.928;18.522;2022-11-02T07:32:21;100544.00;;;13.70
22322;BMP180;11328;53.928;18.522;2022-11-02T07:34:47;100548.00;;;13.60
22322;BMP180;11328;53.928;18.522;2022-11-02T07:37:14;100550.00;;;13.60
22322;BMP180;11328;53.928;18.522;2022-11-02T07:39:41;100539.00;;;13.50
22322;BMP180;11328;53.928;18.522;2022-11-02T07:42:08;100545.00;;;13.40
22322;BMP180;11328;53.928;18.522;2022-11-02T07:44:36;100544.00;;;13.30
22322;BMP180;11328;53.928;18.522;2022-11-02T07:47:02;100537.00;;;13.20
22322;BMP180;11328;53.928;18.522;2022-11-02T07:49:29;100540.00;;;13.20
22322;BMP180;11328;53.928;18.522;2022-11-02T07:51:57;100535.00;;;13.20
22322;BMP180;11328;53.928;18.522;2022-11-02T07:54:23;100536.00;;;13.30
22322;BMP180;11328;53.928;18.522;2022-11-02T07:56:55;100542.00;;;13.50
22322;BMP180;11328;53.928;18.522;2022-11-02T07:59:21;100540.00;;;13.60
22322;BMP180;11328;53.928;18.522;2022-11-02T08:01:49;100538.00;;;13.50
22322;BMP180;11328;53.928;18.522;2022-11-02T08:04:16;100538.00;;;13.50
22322;BMP180;11328;53.928;18.522;2022-11-02T08:06:44;100537.00;;;13.60
22322;BMP180;11328;53.928;18.522;2022-11-02T08:09:11;100541.00;;;13.60
22322;BMP180;11328;53.928;18.522;2022-11-02T08:11:38;100537.00;;;13.70
22322;BMP180;11328;53.928;18.522;2022-11-02T08:14:05;100533.00;;;13.60
22322;BMP180;11328;53.928;18.522;2022-11-02T08:16:32;100542.00;;;13.60
22322;BMP180;11328;53.928;18.522;2022-11-02T08:18:59;100545.00;;;13.50
22322;BMP180;11328;53.928;18.522;2022-11-02T08:21:26;100544.00;;;13.50
22322;BMP180;11328;53.928;18.522;2022-11-02T08:23:53;100554.00;;;13.30
22322;BMP180;11328;53.928;18.522;2022-11-02T08:26:24;100545.00;;;13.40
22322;BMP180;11328;53.928;18.522;2022-11-02T08:28:51;100540.00;;;13.40
22322;BMP180;11328;53.928;18.522;2022-11-02T08:31:18;100544.00;;;13.40
22322;BMP180;11328;53.928;18.522;2022-11-02T08:33:45;100542.00;;;13.50
22322;BMP180;11328;53.928;18.522;2022-11-02T08:36:17;100529.00;;;13.40
22322;BMP180;11328;53.928;18.522;2022-11-02T08:38:44;100540.00;;;13.20
22322;BMP180;11328;53.928;18.522;2022-11-02T08:41:11;100540.00;;;13.10
22322;BMP180;11328;53.928;18.522;2022-11-02T08:43:40;100544.00;;;13.10
22322;BMP180;11328;53.928;18.522;2022-11-02T08:46:07;100546.00;;;13.20
22322;BMP180;11328;53.928;18.522;2022-11-02T08:48:40;100536.00;;;13.40
22322;BMP180;11328;53.928;18.522;2022-11-02T08:51:07;100540.00;;;13.50
22322;BMP180;11328;53.928;18.522;2022-11-02T08:53:34;100539.00;;;13.60
22322;BMP180;11328;53.928;18.522;2022-11-02T08:56:02;100541.00;;;13.80
22322;BMP180;11328;53.928;18.522;2022-11-02T08:58:29;100541.00;;;13.70
22322;BMP180;11328;53.928;18.522;2022-11-02T09:00:56;100534.00;;;13.50
22322;BMP180;11328;53.928;18.522;2022-11-02T09:03:23;100531.00;;;13.30
22322;BMP180;11328;53.928;18.522;2022-11-02T09:05:59;100531.00;;;13.30
22322;BMP180;11328;53.928;18.522;2022-11-02T09:08:27;100527.00;;;13.30
22322;BMP180;11328;53.928;18.522;2022-11-02T09:11:00;100528.00;;;13.30
22322;BMP180;11328;53.928;18.522;2022-11-02T09:13:27;100534.00;;;13.40
22322;BMP180;11328;53.928;18.522;2022-11-02T09:15:57;100521.00;;;13.30
22322;BMP180;11328;53.928;18.522;2022-11-02T09:18:24;100522.00;;;13.40
22322;BMP180;11328;53.928;18.522;2022-11-02T09:20:52;100525.00;;;13.40
22322;BMP180;11328;53.928;18.522;2022-11-02T09:23:20;100534.00;;;13.40
22322;BMP180;11328;53.928;18.522;2022-11-02T09:25:48;100529.00;;;13.50
22322;BMP180;11328;53.928;18.522;2022-11-02T09:28:16;100532.00;;;13.60
22322;BMP180;11328;53.928;18.522;2022-11-02T09:30:43;100544.00;;;13.60
22322;BMP180;11328;53.928;18.522;2022-11-02T09:33:10;100536.00;;;13.60
22322;BMP180;11328;53.928;18.522;2022-11-02T09:35:41;100534.00;;;13.70
22322;BMP180;11328;53.928;18.522;2022-11-02T09:38:09;100535.00;;;13.60
22322;BMP180;11328;53.928;18.522;2022-11-02T09:40:46;100533.00;;;13.50
22322;BMP180;11328;53.928;18.522;2022-11-02T09:46:05;100523.00;;;13.60
22322;BMP180;11328;53.928;18.522;2022-11-02T09:48:40;100526.00;;;13.70
22322;BMP180;11328;53.928;18.522;2022-11-02T09:53:58;100530.00;;;14.00
22322;BMP180;11328;53.928;18.522;2022-11-02T09:56:29;100524.00;;;14.10
22322;BMP180;11328;53.928;18.522;2022-11-02T09:59:04;100515.00;;;14.20
22322;BMP180;11328;53.928;18.522;2022-11-02T10:10:25;100515.00;;;14.30
22322;BMP180;11328;53.928;18.522;2022-11-02T10:15:59;100505.00;;;14.60
22322;BMP180;11328;53.928;18.522;2022-11-02T10:18:30;100501.00;;;14.80
22322;BMP180;11328;53.928;18.522;2022-11-02T10:21:00;100504.00;;;14.90
22322;BMP180;11328;53.928;18.522;2022-11-02T10:23:33;100509.00;;;15.10
22322;BMP180;11328;53.928;18.522;2022-11-02T10:26:02;100516.00;;;15.20
22322;BMP180;11328;53.928;18.522;2022-11-02T10:28:34;100512.00;;;15.30
22322;BMP180;11328;53.928;18.522;2022-11-02T10:31:03;100515.00;;;15.10
22322;BMP180;11328;53.928;18.522;2022-11-02T10:33:31;100502.00;;;15.20
22322;BMP180;11328;53.928;18.522;2022-11-02T10:51:10;100503.00;;;15.60
22322;BMP180;11328;53.928;18.522;2022-11-02T10:53:46;100508.00;;;15.50
22322;BMP180;11328;53.928;18.522;2022-11-02T10:56:31;100507.00;;;15.30
22322;BMP180;11328;53.928;18.522;2022-11-02T10:59:09;100510.00;;;15.20
22322;BMP180;11328;53.928;18.522;2022-11-02T11:01:46;100505.00;;;15.10
22322;BMP180;11328;53.928;18.522;2022-11-02T11:04:31;100507.00;;;15.20
22322;BMP180;11328;53.928;18.522;2022-11-02T11:07:13;100509.00;;;15.10
22322;BMP180;11328;53.928;18.522;2022-11-02T11:09:53;100443.00;;;14.90
22322;BMP180;11328;53.928;18.522;2022-11-02T11:12:31;100514.00;;;15.00
22322;BMP180;11328;53.928;18.522;2022-11-02T11:15:01;100522.00;;;14.90
22322;BMP180;11328;53.928;18.522;2022-11-02T11:17:50;100514.00;;;15.00
22322;BMP180;11328;53.928;18.522;2022-11-02T11:20:40;100492.00;;;15.00
22322;BMP180;11328;53.928;18.522;2022-11-02T11:23:17;100508.00;;;15.00
22322;BMP180;11328;53.928;18.522;2022-11-02T11:26:05;100500.00;;;15.00
22322;BMP180;11328;53.928;18.522;2022-11-02T11:28:52;100500.00;;;15.00
22322;BMP180;11328;53.928;18.522;2022-11-02T11:31:19;100493.00;;;15.00
22322;BMP180;11328;53.928;18.522;2022-11-02T11:34:30;100494.00;;;15.00
22322;BMP180;11328;53.928;18.522;2022-11-02T11:37:10;100492.00;;;15.00
22322;BMP180;11328;53.928;18.522;2022-11-02T11:39:41;100506.00;;;14.90
22322;BMP180;11328;53.928;18.522;2022-11-02T11:42:33;100485.00;;;15.00
22322;BMP180;11328;53.928;18.522;2022-11-02T11:45:22;100469.00;;;14.80
22322;BMP180;11328;53.928;18.522;2022-11-02T11:51:02;100483.00;;;14.90
22322;BMP180;11328;53.928;18.522;2022-11-02T11:53:30;100486.00;;;15.10
22322;BMP180;11328;53.928;18.522;2022-11-02T11:55:59;100472.00;;;15.20
22322;BMP180;11328;53.928;18.522;2022-11-02T11:58:30;100450.00;;;15.30
22322;BMP180;11328;53.928;18.522;2022-11-02T12:03:57;100468.00;;;15.30
22322;BMP180;11328;53.928;18.522;2022-11-02T12:07:10;100459.00;;;15.40
22322;BMP180;11328;53.928;18.522;2022-11-02T12:21:37;100463.00;;;15.90
22322;BMP180;11328;53.928;18.522;2022-11-02T12:43:49;100450.00;;;16.20
22322;BMP180;11328;53.928;18.522;2022-11-02T12:54:58;100455.00;;;15.90
22322;BMP180;11328;53.928;18.522;2022-11-02T12:57:30;100450.00;;;15.90
22322;BMP180;11328;53.928;18.522;2022-11-02T13:00:04;100446.00;;;15.70
22322;BMP180;11328;53.928;18.522;2022-11-02T13:05:25;100436.00;;;15.90
22322;BMP180;11328;53.928;18.522;2022-11-02T13:08:13;100440.00;;;16.10
22322;BMP180;11328;53.928;18.522;2022-11-02T13:10:54;100446.00;;;16.10
22322;BMP180;11328;53.928;18.522;2022-11-02T13:13:50;100438.00;;;16.10
22322;BMP180;11328;53.928;18.522;2022-11-02T13:16:29;100442.00;;;16.10
22322;BMP180;11328;53.928;18.522;2022-11-02T13:19:00;100445.00;;;15.90
22322;BMP180;11328;53.928;18.522;2022-11-02T13:21:35;100446.00;;;15.90
22322;BMP180;11328;53.928;18.522;2022-11-02T13:24:18;100453.00;;;15.80
22322;BMP180;11328;53.928;18.522;2022-11-02T13:26:53;100445.00;;;15.80
22322;BMP180;11328;53.928;18.522;2022-11-02T13:29:47;100439.00;;;15.80
22322;BMP180;11328;53.928;18.522;2022-11-02T13:32:27;100443.00;;;15.80
22322;BMP180;11328;53.928;18.522;2022-11-02T13:35:15;100448.00;;;15.80
22322;BMP180;11328;53.928;18.522;2022-11-02T13:37:52;100419.00;;;16.00
22322;BMP180;11328;53.928;18.522;2022-11-02T13:40:37;100442.00;;;16.00
22322;BMP180;11328;53.928;18.522;2022-11-02T13:43:44;100433.00;;;15.90
22322;BMP180;11328;53.928;18.522;2022-11-02T13:51:50;100440.00;;;15.90
22322;BMP180;11328;53.928;18.522;2022-11-02T13:56:54;100450.00;;;15.90
22322;BMP180;11328;53.928;18.522;2022-11-02T13:59:35;100454.00;;;15.80
22322;BMP180;11328;53.928;18.522;2022-11-02T14:02:14;100452.00;;;15.80
22322;BMP180;11328;53.928;18.522;2022-11-02T14:04:43;100459.00;;;15.80
22322;BMP180;11328;53.928;18.522;2022-11-02T14:07:22;100467.00;;;15.60
22322;BMP180;11328;53.928;18.522;2022-11-02T14:09:56;100469.00;;;15.60
22322;BMP180;11328;53.928;18.522;2022-11-02T14:12:26;100468.00;;;15.50
22322;BMP180;11328;53.928;18.522;2022-11-02T14:20:45;100473.00;;;15.20
22322;BMP180;11328;53.928;18.522;2022-11-02T14:25:57;100462.00;;;15.20
22322;BMP180;11328;53.928;18.522;2022-11-02T14:28:42;100434.00;;;15.20
22322;BMP180;11328;53.928;18.522;2022-11-02T14:34:13;100458.00;;;15.30
22322;BMP180;11328;53.928;18.522;2022-11-02T14:37:09;100454.00;;;15.20
22322;BMP180;11328;53.928;18.522;2022-11-02T14:45:52;100452.00;;;15.10
22322;BMP180;11328;53.928;18.522;2022-11-02T14:48:29;100459.00;;;15.00
22322;BMP180;11328;53.928;18.522;2022-11-02T14:51:06;100451.00;;;15.00
22322;BMP180;11328;53.928;18.522;2022-11-02T14:53:38;100454.00;;;15.00
22322;BMP180;11328;53.928;18.522;2022-11-02T14:56:06;100466.00;;;15.00
22322;BMP180;11328;53.928;18.522;2022-11-02T14:58:39;100464.00;;;14.90
22322;BMP180;11328;53.928;18.522;2022-11-02T15:01:14;100465.00;;;14.80
22322;BMP180;11328;53.928;18.522;2022-11-02T15:03:42;100473.00;;;14.70
22322;BMP180;11328;53.928;18.522;2022-11-02T15:06:25;100470.00;;;14.60
22322;BMP180;11328;53.928;18.522;2022-11-02T15:08:59;100476.00;;;14.50
22322;BMP180;11328;53.928;18.522;2022-11-02T15:11:47;100479.00;;;14.50
22322;BMP180;11328;53.928;18.522;2022-11-02T15:19:46;100489.00;;;14.40
22322;BMP180;11328;53.928;18.522;2022-11-02T15:25:12;100494.00;;;14.50
22322;BMP180;11328;53.928;18.522;2022-11-02T15:27:43;100505.00;;;14.60
22322;BMP180;11328;53.928;18.522;2022-11-02T15:30:15;100503.00;;;14.70
22322;BMP180;11328;53.928;18.522;2022-11-02T15:32:55;100501.00;;;14.60
22322;BMP180;11328;53.928;18.522;2022-11-02T15:35:36;100501.00;;;14.60
22322;BMP180;11328;53.928;18.522;2022-11-02T15:38:05;100504.00;;;14.70
22322;BMP180;11328;53.928;18.522;2022-11-02T15:44:52;100505.00;;;14.50
22322;BMP180;11328;53.928;18.522;2022-11-02T16:02:24;100513.00;;;14.10
22322;BMP180;11328;53.928;18.522;2022-11-02T16:05:01;100519.00;;;14.00
22322;BMP180;11328;53.928;18.522;2022-11-02T16:07:30;100518.00;;;14.10
22322;BMP180;11328;53.928;18.522;2022-11-02T16:10:30;100522.00;;;14.10
22322;BMP180;11328;53.928;18.522;2022-11-02T16:13:14;100521.00;;;14.00
22322;BMP180;11328;53.928;18.522;2022-11-02T16:15:49;100490.00;;;13.90
22322;BMP180;11328;53.928;18.522;2022-11-02T16:18:35;100519.00;;;13.90
22322;BMP180;11328;53.928;18.522;2022-11-02T16:21:12;100524.00;;;13.80
22322;BMP180;11328;53.928;18.522;2022-11-02T16:23:48;100516.00;;;13.80
22322;BMP180;11328;53.928;18.522;2022-11-02T16:26:25;100514.00;;;13.80
22322;BMP180;11328;53.928;18.522;2022-11-02T16:28:57;100512.00;;;13.90
22322;BMP180;11328;53.928;18.522;2022-11-02T16:31:27;100509.00;;;13.90
22322;BMP180;11328;53.928;18.522;2022-11-02T16:34:24;100516.00;;;13.80
22322;BMP180;11328;53.928;18.522;2022-11-02T16:36:52;100534.00;;;13.80
22322;BMP180;11328;53.928;18.522;2022-11-02T16:39:28;100519.00;;;13.40
22322;BMP180;11328;53.928;18.522;2022-11-02T16:41:59;100519.00;;;13.50
22322;BMP180;11328;53.928;18.522;2022-11-02T16:44:32;100519.00;;;13.60
22322;BMP180;11328;53.928;18.522;2022-11-02T16:52:31;100521.00;;;13.50
22322;BMP180;11328;53.928;18.522;2022-11-02T16:54:58;100525.00;;;13.50
22322;BMP180;11328;53.928;18.522;2022-11-02T16:57:34;100530.00;;;13.50
22322;BMP180;11328;53.928;18.522;2022-11-02T17:00:18;100530.00;;;13.40
22322;BMP180;11328;53.928;18.522;2022-11-02T17:02:46;100522.00;;;13.40
22322;BMP180;11328;53.928;18.522;2022-11-02T17:05:21;100521.00;;;13.40
22322;BMP180;11328;53.928;18.522;2022-11-02T17:07:59;100529.00;;;13.40
22322;BMP180;11328;53.928;18.522;2022-11-02T17:10:28;100523.00;;;13.30
22322;BMP180;11328;53.928;18.522;2022-11-02T17:12:56;100533.00;;;13.30
22322;BMP180;11328;53.928;18.522;2022-11-02T17:15:27;100528.00;;;13.30
22322;BMP180;11328;53.928;18.522;2022-11-02T17:20:37;100525.00;;;13.30
22322;BMP180;11328;53.928;18.522;2022-11-02T17:23:09;100533.00;;;13.20
22322;BMP180;11328;53.928;18.522;2022-11-02T17:31:54;100543.00;;;13.30
22322;BMP180;11328;53.928;18.522;2022-11-02T17:34:23;100543.00;;;13.20
22322;BMP180;11328;53.928;18.522;2022-11-02T17:36:50;100549.00;;;13.10